Terminal Aerodrome Forecast
Issued by NWS Sioux Falls, SD

Home | Current Version | Previous Version | Text Only | Print | Product List | Glossary On
Versions: 1 2 3 4 5 6 7 8 9 10 11 12 13 14 15 16 17 18
000
FTUS43 KFSD 220527
TAFSUX
TAF
KSUX 220527Z 2206/2306 10004KT P6SM OVC090
      TEMPO 2208/2210 4SM -SN BKN040
     FM221000 11004KT P6SM OVC045
     FM221300 09005KT P6SM -SN OVC045
     FM221700 13008KT 3SM -SN OVC015
     FM221900 12007KT 3SM -FZDZ OVC015
     FM222100 12007KT 1SM -SN OVC010
     FM230300 VRB03KT P6SM OVC008=

USA.gov is the U.S. government's official web portal to all federal, state and local government web resources and services.